Time;durP1;ratioP1;P1;durP2;ratioP2;P2;SDS_P1;SDS_P2;PMS_P1;PMS_P2;Temp;Humidity;BMP_temperature;BMP_pressure;BME280_temperature;BME280_humidity;BME280_pressure;Samples;Min_cycle;Max_cycle;Signal;HPM_P1;HPM_P2
2022/10/01 00:01:00;;;;;;;4.65;1.80;;;;;;;11.80;63.75;96774.63;4844111;29;20193;-76
2022/10/01 00:03:27;;;;;;;2.63;1.98;;;;;;;11.76;63.34;96781.41;4845664;29;20236;-75
2022/10/01 00:06:08;;;;;;;3.05;2.33;;;;;;;11.73;63.76;96779.31;4839479;29;20279;-75
2022/10/01 00:08:40;;;;;;;3.38;2.10;;;;;;;11.84;63.58;96771.50;4847989;29;20618;-75
2022/10/01 00:11:25;;;;;;;2.35;2.00;;;;;;;11.67;63.89;96772.56;4845952;29;20275;-76
2022/10/01 00:13:52;;;;;;;2.10;1.70;;;;;;;11.83;63.63;96772.56;4814384;29;20212;-76
2022/10/01 00:16:23;;;;;;;3.33;1.92;;;;;;;11.75;63.59;96774.63;4845161;29;20641;-75
2022/10/01 00:18:49;;;;;;;3.10;1.75;;;;;;;11.94;63.91;96780.16;4846032;29;20219;-76
2022/10/01 00:21:21;;;;;;;3.25;2.00;;;;;;;11.85;63.61;96779.06;4842414;29;20503;-76
2022/10/01 00:23:47;;;;;;;3.80;1.90;;;;;;;12.08;63.54;96764.75;4846671;29;20212;-76
2022/10/01 00:26:19;;;;;;;5.72;2.00;;;;;;;12.09;63.12;96762.91;4827539;29;20256;-76
2022/10/01 00:28:46;;;;;;;3.70;1.73;;;;;;;12.17;63.02;96754.53;4846013;29;20195;-76
2022/10/01 00:31:13;;;;;;;2.53;2.10;;;;;;;12.23;63.23;96756.06;4846707;29;20351;-76
2022/10/01 00:33:42;;;;;;;3.60;1.83;;;;;;;12.15;62.93;96749.59;4846559;29;20433;-75
2022/10/01 00:36:08;;;;;;;2.15;1.83;;;;;;;12.17;63.49;96751.94;4829332;29;20196;-76
2022/10/01 00:38:36;;;;;;;3.30;2.00;;;;;;;12.29;62.70;96751.66;4815054;29;20193;-75
2022/10/01 00:41:03;;;;;;;2.60;1.83;;;;;;;12.33;62.59;96750.81;4830725;29;20574;-75
2022/10/01 00:43:31;;;;;;;3.25;1.85;;;;;;;12.27;62.77;96749.28;4830016;29;20295;-76
2022/10/01 00:46:11;;;;;;;2.30;1.40;;;;;;;12.39;62.53;96751.63;4828286;29;20251;-75
2022/10/01 00:48:44;;;;;;;3.20;1.65;;;;;;;12.29;62.78;96752.41;4847284;29;20288;-75
2022/10/01 00:51:10;;;;;;;2.88;1.85;;;;;;;12.44;62.75;96753.41;4846412;29;20287;-76
2022/10/01 00:53:37;;;;;;;2.72;1.55;;;;;;;12.49;62.13;96748.97;4860723;29;20169;-75
2022/10/01 00:56:04;;;;;;;2.80;1.70;;;;;;;12.41;62.53;96754.72;4836784;29;20273;-76
2022/10/01 00:58:29;;;;;;;2.45;1.52;;;;;;;12.49;62.35;96745.56;4841599;29;20280;-76
2022/10/01 01:00:55;;;;;;;3.40;1.80;;;;;;;12.50;61.67;96740.06;4848707;29;20687;-75
2022/10/01 01:03:21;;;;;;;1.63;1.38;;;;;;;12.67;60.92;96733.75;4850795;29;20738;-76
2022/10/01 01:05:49;;;;;;;2.90;1.30;;;;;;;12.79;61.11;96734.22;4830256;29;20224;-76
2022/10/01 01:08:14;;;;;;;2.63;1.20;;;;;;;12.83;61.37;96724.00;4848014;29;20188;-75
2022/10/01 01:11:13;;;;;;;3.85;1.33;;;;;;;12.54;61.78;96725.44;4841674;29;20220;-75
2022/10/01 01:13:56;;;;;;;3.63;1.23;;;;;;;12.60;60.93;96726.19;4849799;29;20411;-75
2022/10/01 01:16:28;;;;;;;2.75;1.60;;;;;;;12.61;61.09;96713.91;4848571;29;20283;-76
2022/10/01 01:19:30;;;;;;;2.85;1.65;;;;;;;12.63;61.07;96715.22;4834240;29;20643;-75
2022/10/01 01:22:00;;;;;;;1.52;1.10;;;;;;;12.73;61.36;96712.56;4851752;29;20699;-76
2022/10/01 01:24:49;;;;;;;2.47;1.27;;;;;;;12.43;61.99;96712.69;4834141;29;20680;-76
2022/10/01 01:27:25;;;;;;;3.28;1.65;;;;;;;12.40;61.66;96716.59;4833716;29;20239;-76
2022/10/01 01:30:03;;;;;;;2.47;1.40;;;;;;;12.65;60.99;96715.72;4849977;29;20589;-75
2022/10/01 01:32:50;;;;;;;2.17;1.30;;;;;;;12.48;61.00;96703.00;4847232;29;20289;-76
2022/10/01 01:35:23;;;;;;;4.13;1.50;;;;;;;12.59;60.43;96698.50;4831936;29;20199;-76
2022/10/01 01:37:56;;;;;;;1.85;1.00;;;;;;;12.71;60.69;96692.97;4849251;29;20108;-76
2022/10/01 01:40:22;;;;;;;3.13;1.48;;;;;;;12.72;60.85;96703.16;4849550;29;20220;-75
2022/10/01 01:42:48;;;;;;;1.70;1.17;;;;;;;12.74;60.52;96695.06;4851442;29;20435;-75
2022/10/01 01:45:18;;;;;;;1.33;1.10;;;;;;;12.88;60.12;96695.22;4850825;29;20647;-76
2022/10/01 01:47:44;;;;;;;1.80;1.50;;;;;;;12.82;60.64;96696.31;4847254;29;20252;-76
2022/10/01 01:50:12;;;;;;;2.08;1.10;;;;;;;12.87;60.03;96694.47;4832732;29;20373;-76
2022/10/01 01:52:38;;;;;;;1.95;1.10;;;;;;;12.92;60.51;96683.19;4849477;29;20224;-75
2022/10/01 01:55:07;;;;;;;2.20;1.35;;;;;;;12.87;60.37;96678.00;4864035;29;20694;-75
2022/10/01 01:57:36;;;;;;;2.75;1.45;;;;;;;12.84;59.91;96676.69;4843632;29;20247;-76
2022/10/01 02:00:03;;;;;;;1.15;0.98;;;;;;;12.99;60.03;96682.88;4848231;29;20177;-76
2022/10/01 02:02:32;;;;;;;2.15;1.00;;;;;;;13.05;59.87;96679.19;4848560;29;20193;-76
2022/10/01 02:05:04;;;;;;;2.67;1.20;;;;;;;12.74;59.82;96669.69;4855278;29;20203;-76
2022/10/01 02:07:29;;;;;;;2.25;0.95;;;;;;;13.05;59.26;96663.50;4841045;29;20213;-76
2022/10/01 02:10:01;;;;;;;3.03;1.20;;;;;;;13.00;59.76;96666.16;4851044;29;20600;-76
2022/10/01 02:12:38;;;;;;;1.52;1.23;;;;;;;13.04;59.92;96656.72;4849030;29;20321;-76
2022/10/01 02:15:35;;;;;;;2.58;1.27;;;;;;;12.87;59.78;96660.50;4849968;29;20256;-76
2022/10/01 02:18:26;;;;;;;1.60;1.00;;;;;;;12.94;59.70;96657.56;4845454;29;20169;-76
2022/10/01 02:21:18;;;;;;;2.08;1.00;;;;;;;13.11;59.35;96662.44;4845978;29;20170;-76
2022/10/01 02:23:56;;;;;;;2.22;1.27;;;;;;;13.02;59.60;96649.16;4832550;29;20139;-75
2022/10/01 02:26:23;;;;;;;1.45;1.10;;;;;;;13.12;59.51;96650.91;4833739;29;20279;-76
2022/10/01 02:28:50;;;;;;;3.58;1.17;;;;;;;13.04;59.55;96652.28;4849167;29;20253;-76
2022/10/01 02:31:16;;;;;;;1.85;0.88;;;;;;;13.04;59.85;96651.47;4833248;29;20294;-76
2022/10/01 02:33:44;;;;;;;2.67;1.20;;;;;;;13.10;59.25;96655.63;4863986;29;20667;-76
2022/10/01 02:36:10;;;;;;;1.65;0.98;;;;;;;13.14;59.84;96651.41;4864853;29;20197;-77
2022/10/01 02:38:38;;;;;;;2.05;1.23;;;;;;;13.31;58.85;96635.31;4865366;28;20318;-75
2022/10/01 02:41:05;;;;;;;1.60;1.00;;;;;;;13.17;59.49;96637.78;4818412;29;20291;-75
2022/10/01 02:43:37;;;;;;;1.70;1.35;;;;;;;13.09;59.71;96643.59;4833553;29;20244;-76
2022/10/01 02:46:18;;;;;;;1.17;0.95;;;;;;;13.03;60.01;96629.03;4845274;29;20623;-76
2022/10/01 02:48:44;;;;;;;1.77;0.98;;;;;;;13.42;59.01;96626.38;4833663;29;20596;-76
2022/10/01 02:51:47;;;;;;;3.05;1.30;;;;;;;13.12;59.79;96619.53;4848936;29;20197;-76
2022/10/01 02:54:17;;;;;;;1.60;1.00;;;;;;;13.06;59.95;96615.41;4827789;29;20364;-76
2022/10/01 02:59:26;;;;;;;2.40;1.05;;;;;;;13.33;59.14;96612.31;4857331;29;20643;-75
2022/10/01 03:01:52;;;;;;;1.90;1.15;;;;;;;13.41;59.10;96609.13;4849172;29;20264;-75
2022/10/01 03:04:18;;;;;;;1.35;0.98;;;;;;;13.26;59.97;96591.72;4851182;29;20282;-76
2022/10/01 03:06:44;;;;;;;1.83;0.95;;;;;;;13.17;60.13;96597.81;4863400;29;20546;-75
2022/10/01 03:09:10;;;;;;;1.10;0.88;;;;;;;13.40;59.44;96598.94;4858315;29;20666;-75
2022/10/01 03:11:35;;;;;;;3.63;1.52;;;;;;;13.62;58.72;96598.44;4850964;29;20294;-76
2022/10/01 03:14:01;;;;;;;1.83;1.10;;;;;;;13.38;59.09;96598.44;4848978;29;20679;-77
2022/10/01 03:16:27;;;;;;;2.55;1.48;;;;;;;13.59;58.85;96599.78;4848245;29;20356;-76
2022/10/01 03:18:52;;;;;;;1.65;1.23;;;;;;;13.51;58.80;96602.25;4860229;29;20256;-76
2022/10/01 03:21:18;;;;;;;1.20;0.98;;;;;;;13.56;59.37;96600.34;4848897;29;20200;-76
2022/10/01 03:23:43;;;;;;;1.58;1.00;;;;;;;13.55;59.61;96606.63;4848652;29;20797;-75
2022/10/01 03:26:08;;;;;;;2.17;1.00;;;;;;;13.41;59.85;96609.13;4848145;29;20754;-76
2022/10/01 03:28:34;;;;;;;2.45;1.15;;;;;;;13.47;60.54;96605.41;4848374;29;20212;-76
2022/10/01 03:31:10;;;;;;;1.95;1.00;;;;;;;13.41;60.30;96609.13;4861158;29;20181;-76
2022/10/01 03:33:36;;;;;;;2.75;1.40;;;;;;;13.28;62.05;96610.53;4832579;29;20734;-76
2022/10/01 03:36:03;;;;;;;2.03;1.20;;;;;;;13.38;62.22;96603.66;4847538;29;20328;-76
2022/10/01 03:38:29;;;;;;;2.28;1.08;;;;;;;13.41;61.91;96600.50;4848406;29;20270;-76
2022/10/01 03:40:54;;;;;;;2.35;1.60;;;;;;;13.22;62.98;96598.53;4848590;29;20197;-77
2022/10/01 03:43:20;;;;;;;3.72;1.52;;;;;;;13.32;63.13;96602.94;4856546;29;20226;-75
2022/10/01 03:45:46;;;;;;;1.90;1.40;;;;;;;13.36;63.47;96590.84;4828783;29;20643;-76
2022/10/01 03:48:14;;;;;;;2.75;1.45;;;;;;;13.28;63.81;96583.56;4832300;29;20337;-76
2022/10/01 03:50:39;;;;;;;1.88;1.30;;;;;;;13.38;63.52;96580.13;4833298;29;20296;-76
2022/10/01 03:53:05;;;;;;;1.88;1.60;;;;;;;13.35;64.07;96581.47;4848415;29;20260;-76
2022/10/01 03:55:31;;;;;;;2.03;1.73;;;;;;;13.16;65.13;96578.75;4849839;29;20538;-76
2022/10/01 03:57:57;;;;;;;1.95;1.63;;;;;;;13.10;65.43;96564.91;4838139;29;20278;-76
2022/10/01 04:00:26;;;;;;;3.42;1.83;;;;;;;12.93;66.33;96575.00;4848275;29;20615;-76
2022/10/01 04:02:51;;;;;;;4.43;1.88;;;;;;;13.15;65.36;96574.56;4848155;29;20351;-76
2022/10/01 04:05:19;;;;;;;1.67;1.40;;;;;;;12.93;65.83;96570.53;4848528;29;20296;-77
2022/10/01 04:07:46;;;;;;;3.05;2.15;;;;;;;13.01;65.56;96569.19;4831713;29;20264;-76
2022/10/01 04:10:12;;;;;;;3.03;2.45;;;;;;;13.10;65.61;96572.75;4833803;29;20203;-76
2022/10/01 04:12:38;;;;;;;2.60;1.90;;;;;;;13.04;66.26;96573.88;4849286;29;20517;-76
2022/10/01 04:15:03;;;;;;;3.08;1.85;;;;;;;12.99;66.25;96578.34;4833276;29;20201;-76
2022/10/01 04:17:28;;;;;;;3.75;1.70;;;;;;;12.97;66.97;96562.97;4833782;29;20260;-76
2022/10/01 04:19:56;;;;;;;3.05;2.40;;;;;;;12.93;66.92;96564.56;4848847;29;20260;-76
2022/10/01 04:22:22;;;;;;;4.65;2.42;;;;;;;12.82;67.03;96557.88;4849441;29;20794;-76
2022/10/01 04:24:47;;;;;;;4.25;2.28;;;;;;;12.78;67.76;96562.06;4848614;29;20264;-76
2022/10/01 04:27:12;;;;;;;2.80;1.85;;;;;;;12.90;67.76;96552.81;4848687;29;20658;-77
2022/10/01 04:29:37;;;;;;;2.85;2.22;;;;;;;12.70;68.56;96545.16;4841908;29;20691;-76
2022/10/01 04:32:03;;;;;;;2.30;1.95;;;;;;;12.98;67.65;96548.81;4859260;29;20658;-77
2022/10/01 04:37:12;;;;;;;3.80;2.28;;;;;;;12.64;68.70;96554.06;4862958;29;20669;-76
2022/10/01 04:39:38;;;;;;;3.38;2.30;;;;;;;12.75;68.49;96547.72;4862885;28;20275;-76
2022/10/01 04:42:03;;;;;;;2.95;2.50;;;;;;;12.87;68.13;96542.16;4850860;29;20264;-76
2022/10/01 04:44:30;;;;;;;5.10;2.50;;;;;;;12.74;68.88;96535.72;4847053;29;20663;-78
2022/10/01 04:46:55;;;;;;;3.97;2.40;;;;;;;12.86;68.60;96535.34;4833604;29;20216;-77
2022/10/01 04:49:21;;;;;;;4.20;2.50;;;;;;;12.81;68.80;96528.31;4844539;29;20604;-77
2022/10/01 04:51:46;;;;;;;3.70;2.47;;;;;;;12.92;68.70;96527.19;4845386;29;20196;-77
2022/10/01 04:54:11;;;;;;;5.13;2.47;;;;;;;12.97;68.40;96526.38;4850465;29;20220;-77
2022/10/01 04:56:37;;;;;;;3.25;2.35;;;;;;;12.92;68.46;96519.34;4847350;29;20195;-77
2022/10/01 04:59:02;;;;;;;4.53;2.38;;;;;;;12.88;68.51;96518.34;4836965;29;20079;-76
2022/10/01 05:01:29;;;;;;;4.72;2.90;;;;;;;12.83;68.80;96517.59;4854901;29;20268;-76
2022/10/01 05:03:55;;;;;;;3.35;2.47;;;;;;;12.84;69.09;96519.19;4853887;29;20275;-79
2022/10/01 05:06:20;;;;;;;2.95;2.65;;;;;;;12.89;68.85;96513.91;4852223;29;20287;-78
2022/10/01 05:08:48;;;;;;;3.38;2.47;;;;;;;12.91;69.21;96507.34;4853114;29;20242;-79
2022/10/01 05:11:14;;;;;;;2.85;2.50;;;;;;;13.00;68.73;96501.53;4853146;29;20750;-78
2022/10/01 05:13:40;;;;;;;3.22;2.22;;;;;;;13.02;68.48;96500.19;4851911;29;20328;-79
2022/10/01 05:16:06;;;;;;;3.42;2.92;;;;;;;12.85;69.11;96497.19;4837061;29;20502;-80
2022/10/01 05:18:31;;;;;;;5.40;2.80;;;;;;;13.06;68.28;96495.19;4850069;29;20182;-79
2022/10/01 05:20:57;;;;;;;3.15;2.40;;;;;;;13.02;69.10;96502.03;4851326;29;20208;-80
2022/10/01 05:23:22;;;;;;;3.85;2.70;;;;;;;12.73;69.90;96516.66;4836973;29;20800;-79
2022/10/01 05:25:47;;;;;;;4.35;3.00;;;;;;;12.81;70.38;96523.09;4853047;29;20299;-79
2022/10/01 05:28:15;;;;;;;3.78;2.85;;;;;;;12.87;69.77;96521.25;4852473;29;20676;-80
2022/10/01 05:30:40;;;;;;;3.35;2.50;;;;;;;13.02;69.32;96523.72;4853676;29;20186;-79
2022/10/01 05:33:06;;;;;;;2.90;2.65;;;;;;;12.65;70.31;96519.84;4836595;29;20264;-79
2022/10/01 05:35:31;;;;;;;4.15;2.60;;;;;;;12.78;69.81;96523.66;4850673;29;20336;-79
2022/10/01 05:38:01;;;;;;;3.95;2.42;;;;;;;12.95;69.53;96525.09;4850098;29;20334;-80
2022/10/01 05:40:27;;;;;;;4.13;2.70;;;;;;;13.06;69.37;96523.94;4864913;29;20170;-80
2022/10/01 05:42:57;;;;;;;3.10;2.58;;;;;;;13.04;69.30;96524.22;4847303;29;20130;-80
2022/10/01 05:45:23;;;;;;;3.40;2.30;;;;;;;13.07;69.25;96522.88;4846711;29;20205;-81
2022/10/01 05:48:01;;;;;;;3.85;2.90;;;;;;;12.51;70.46;96519.69;4842298;29;20294;-78
2022/10/01 05:50:30;;;;;;;2.53;2.30;;;;;;;12.79;69.85;96519.22;4866709;29;20174;-79
2022/10/01 05:52:55;;;;;;;3.42;2.45;;;;;;;12.54;71.39;96528.78;4851235;29;20268;-79
2022/10/01 05:55:21;;;;;;;4.43;2.35;;;;;;;12.86;70.01;96515.22;4836232;29;20217;-80
2022/10/01 05:57:57;;;;;;;3.80;2.10;;;;;;;12.77;70.13;96516.88;4836108;29;20283;-81
2022/10/01 06:00:23;;;;;;;3.10;2.30;;;;;;;13.00;69.57;96519.81;4851546;29;20299;-79
2022/10/01 06:02:50;;;;;;;3.58;2.47;;;;;;;12.88;70.09;96520.94;4834117;29;20276;-80
2022/10/01 06:05:16;;;;;;;3.20;2.25;;;;;;;12.81;70.26;96512.66;4844564;29;20292;-79
2022/10/01 06:07:41;;;;;;;4.43;2.40;;;;;;;12.95;69.79;96522.47;4835957;29;20631;-80
2022/10/01 06:10:08;;;;;;;5.65;2.55;;;;;;;12.71;70.65;96517.97;4852041;29;20173;-79
2022/10/01 06:12:33;;;;;;;3.70;2.47;;;;;;;12.97;70.10;96523.78;4850570;29;20187;-77
2022/10/01 06:14:58;;;;;;;3.83;2.20;;;;;;;12.64;71.11;96512.28;4849810;29;20162;-80
2022/10/01 06:17:24;;;;;;;3.70;2.28;;;;;;;12.65;71.47;96506.00;4851997;29;20291;-80
2022/10/01 06:19:50;;;;;;;3.38;2.08;;;;;;;12.93;70.12;96500.00;4835767;29;20679;-80
2022/10/01 06:22:16;;;;;;;3.22;2.28;;;;;;;12.76;70.64;96499.63;4835894;29;20203;-80
2022/10/01 06:24:42;;;;;;;2.55;2.13;;;;;;;12.57;71.71;96498.75;4843498;29;20673;-80
2022/10/01 06:27:07;;;;;;;4.82;2.40;;;;;;;12.77;71.20;96506.44;4846480;29;20556;-80
2022/10/01 06:29:32;;;;;;;3.10;2.15;;;;;;;13.04;70.08;96513.75;4852513;29;20239;-79
2022/10/01 06:31:58;;;;;;;3.33;2.30;;;;;;;13.05;70.43;96509.31;4851111;29;20188;-79
2022/10/01 06:34:25;;;;;;;3.85;2.65;;;;;;;12.88;70.86;96504.50;4852978;29;20139;-80
2022/10/01 06:36:50;;;;;;;3.08;2.30;;;;;;;13.02;70.63;96512.47;4835574;29;20184;-81
2022/10/01 06:39:16;;;;;;;2.53;2.30;;;;;;;12.83;71.48;96515.75;4863633;28;20319;-81
2022/10/01 06:41:42;;;;;;;3.17;2.10;;;;;;;12.83;71.55;96509.78;4863521;29;20173;-81
2022/10/01 06:44:08;;;;;;;2.83;1.90;;;;;;;13.04;70.95;96510.34;4850571;29;20268;-80
2022/10/01 06:46:34;;;;;;;3.78;2.10;;;;;;;12.87;71.55;96516.78;4845814;29;20241;-81
2022/10/01 06:48:59;;;;;;;2.80;2.03;;;;;;;12.92;71.61;96529.81;4840459;29;20289;-80
2022/10/01 06:54:09;;;;;;;3.13;1.70;;;;;;;12.87;71.77;96531.69;4850444;29;20165;-80
2022/10/01 06:56:35;;;;;;;2.90;1.70;;;;;;;12.96;71.20;96544.94;4848421;29;20251;-80
2022/10/01 06:59:01;;;;;;;4.65;2.30;;;;;;;13.08;71.24;96548.75;4863607;29;20195;-80
2022/10/01 07:01:26;;;;;;;3.28;2.30;;;;;;;12.79;72.24;96559.19;4844838;29;20169;-80
2022/10/01 07:03:53;;;;;;;4.40;1.65;;;;;;;12.60;72.50;96511.28;4849477;29;20279;-81
2022/10/01 07:06:18;;;;;;;1.58;1.42;;;;;;;12.79;72.50;96540.88;4850403;29;20699;-80
2022/10/01 07:08:43;;;;;;;1.85;1.27;;;;;;;13.05;72.08;96538.81;4834378;29;20166;-81
2022/10/01 07:11:09;;;;;;;2.38;1.55;;;;;;;13.15;71.60;96537.19;4818009;29;20203;-82
2022/10/01 07:13:34;;;;;;;5.55;1.85;;;;;;;12.82;72.48;96524.66;4850099;29;20181;-83
2022/10/01 07:16:02;;;;;;;1.70;1.10;;;;;;;12.69;72.92;96515.63;4850031;29;20295;-85
2022/10/01 07:18:27;;;;;;;3.63;1.05;;;;;;;12.64;73.47;96513.06;4834053;29;20327;-82
2022/10/01 07:20:55;;;;;;;1.35;1.00;;;;;;;12.88;72.86;96520.19;4833440;29;20313;-81
2022/10/01 07:23:23;;;;;;;1.65;0.98;;;;;;;12.93;72.71;96526.13;4833695;29;20639;-81
2022/10/01 07:25:49;;;;;;;1.52;1.02;;;;;;;13.23;71.33;96516.47;4837129;29;20714;-81
2022/10/01 07:28:18;;;;;;;3.75;0.98;;;;;;;13.07;71.50;96515.03;4833533;29;20192;-79
2022/10/01 07:30:46;;;;;;;1.10;0.80;;;;;;;12.89;72.91;96525.13;4848639;29;20248;-81
2022/10/01 07:33:12;;;;;;;0.80;0.70;;;;;;;13.16;71.54;96534.31;4850087;29;20709;-80
2022/10/01 07:35:37;;;;;;;1.67;1.02;;;;;;;13.07;72.58;96547.19;4848179;29;20299;-79
2022/10/01 07:38:06;;;;;;;2.40;1.00;;;;;;;13.31;71.93;96549.03;4836751;29;20249;-81
2022/10/01 07:40:31;;;;;;;1.73;0.95;;;;;;;12.90;73.08;96550.22;4833772;29;20216;-80
2022/10/01 07:42:57;;;;;;;1.17;0.73;;;;;;;12.93;72.90;96546.25;4833269;29;20368;-80
2022/10/01 07:45:24;;;;;;;1.27;0.80;;;;;;;13.20;72.67;96550.97;4830630;29;20173;-80
2022/10/01 07:48:00;;;;;;;0.88;0.68;;;;;;;13.20;72.00;96552.81;4818128;29;20224;-81
2022/10/01 07:50:26;;;;;;;1.48;0.60;;;;;;;13.13;72.46;96555.00;4833681;29;20252;-81
2022/10/01 07:52:53;;;;;;;2.08;0.80;;;;;;;13.16;72.66;96559.66;4833902;29;20667;-80
2022/10/01 07:55:19;;;;;;;1.00;0.60;;;;;;;13.22;72.55;96561.16;4833836;29;20291;-81
2022/10/01 07:57:55;;;;;;;0.80;0.50;;;;;;;13.00;73.13;96557.16;4833645;29;20368;-81
2022/10/01 08:00:22;;;;;;;1.65;0.50;;;;;;;13.27;72.53;96567.13;4846869;29;20174;-80
2022/10/01 08:02:53;;;;;;;1.50;0.75;;;;;;;13.19;72.16;96559.88;4833502;29;20214;-81
2022/10/01 08:05:23;;;;;;;1.00;0.50;;;;;;;13.19;72.36;96553.88;4831787;29;20221;-80
2022/10/01 08:07:48;;;;;;;1.20;0.60;;;;;;;12.97;73.68;96546.50;4848625;29;20275;-80
2022/10/01 08:10:16;;;;;;;0.88;0.60;;;;;;;12.86;74.10;96530.13;4833107;29;20165;-80
2022/10/01 08:12:42;;;;;;;1.02;0.75;;;;;;;13.00;73.97;96519.81;4833128;29;20266;-81
2022/10/01 08:15:12;;;;;;;1.13;0.60;;;;;;;12.72;74.74;96525.53;4848411;29;20366;-79
2022/10/01 08:17:38;;;;;;;0.80;0.63;;;;;;;12.92;74.37;96521.19;4833384;29;20702;-81
2022/10/01 08:20:05;;;;;;;1.10;0.80;;;;;;;13.10;73.51;96538.00;4849427;29;20784;-80
2022/10/01 08:22:31;;;;;;;0.60;0.57;;;;;;;13.07;73.75;96541.97;4833769;29;20268;-80
2022/10/01 08:24:56;;;;;;;1.10;0.70;;;;;;;13.09;73.73;96528.59;4833384;29;20216;-81
2022/10/01 08:27:25;;;;;;;1.33;0.50;;;;;;;12.85;74.30;96536.38;4833590;29;20201;-81
2022/10/01 08:29:52;;;;;;;1.63;0.70;;;;;;;13.20;73.65;96558.06;4834102;29;20645;-80
2022/10/01 08:32:18;;;;;;;0.85;0.52;;;;;;;13.35;73.22;96562.38;4850529;29;20212;-80
2022/10/01 08:34:43;;;;;;;1.65;1.02;;;;;;;13.33;73.64;96559.25;4834134;29;20685;-79
2022/10/01 08:37:08;;;;;;;0.90;0.60;;;;;;;13.03;74.49;96550.63;4833992;29;20695;-79
2022/10/01 08:39:35;;;;;;;1.08;0.57;;;;;;;13.30;73.65;96550.13;4849648;29;20240;-80
2022/10/01 08:42:28;;;;;;;0.90;0.65;;;;;;;13.30;73.52;96545.66;4851648;29;20109;-82
2022/10/01 08:44:54;;;;;;;2.10;0.80;;;;;;;12.92;74.93;96537.66;4846392;29;20646;-80
2022/10/01 08:47:27;;;;;;;1.38;0.70;;;;;;;13.15;74.66;96532.72;4833292;29;20204;-81
2022/10/01 08:49:59;;;;;;;0.80;0.70;;;;;;;13.06;74.47;96524.72;4834265;29;20798;-80
2022/10/01 08:52:29;;;;;;;1.40;0.60;;;;;;;13.17;74.11;96528.00;4830871;29;20235;-80
2022/10/01 08:54:57;;;;;;;2.33;0.80;;;;;;;13.15;74.08;96535.34;4846869;29;20271;-80
2022/10/01 08:57:26;;;;;;;0.85;0.60;;;;;;;13.62;72.84;96539.09;4849569;29;20224;-80
2022/10/01 08:59:56;;;;;;;3.25;0.88;;;;;;;13.28;73.98;96528.69;4850365;29;20208;-82
2022/10/01 09:02:21;;;;;;;1.27;0.70;;;;;;;13.44;73.68;96550.25;4850234;29;20635;-79
2022/10/01 09:04:49;;;;;;;1.98;0.82;;;;;;;13.24;74.10;96541.53;4833733;29;20192;-81
2022/10/01 09:07:33;;;;;;;1.05;0.73;;;;;;;13.49;73.23;96547.59;4832002;29;20632;-80
2022/10/01 09:10:20;;;;;;;1.42;0.60;;;;;;;13.46;73.56;96545.53;4831862;29;20329;-80
2022/10/01 09:13:21;;;;;;;1.52;0.70;;;;;;;13.29;74.46;96549.31;4861816;29;20377;-82
2022/10/01 09:16:00;;;;;;;0.85;0.60;;;;;;;13.14;75.02;96553.91;4843734;29;20703;-80
2022/10/01 09:19:00;;;;;;;1.13;0.80;;;;;;;13.21;75.06;96562.22;4834561;29;20204;-80
2022/10/01 09:21:47;;;;;;;0.80;0.70;;;;;;;13.26;74.57;96554.31;4851429;29;20170;-82
2022/10/01 09:24:25;;;;;;;1.15;0.88;;;;;;;13.43;74.01;96559.16;4848710;29;20673;-81
2022/10/01 09:26:50;;;;;;;1.42;0.63;;;;;;;13.64;73.78;96565.75;4851391;29;20643;-81
2022/10/01 09:29:31;;;;;;;0.63;0.43;;;;;;;13.45;73.99;96549.19;4834140;29;20083;-80
2022/10/01 09:31:58;;;;;;;0.90;0.60;;;;;;;13.82;72.90;96548.50;4834745;29;20212;-80
2022/10/01 09:34:33;;;;;;;1.95;0.60;;;;;;;13.72;73.18;96547.88;4852477;29;20740;-80
2022/10/01 09:36:58;;;;;;;0.52;0.43;;;;;;;13.84;73.59;96561.31;4852927;29;20371;-82
2022/10/01 09:39:36;;;;;;;1.15;0.40;;;;;;;13.24;75.64;96551.22;4867674;29;20700;-80
2022/10/01 09:42:02;;;;;;;0.98;0.50;;;;;;;13.61;74.41;96565.50;4837508;29;20643;-81
2022/10/01 09:44:29;;;;;;;0.65;0.45;;;;;;;13.66;73.85;96550.53;4849771;29;20162;-81
2022/10/01 09:46:54;;;;;;;0.52;0.45;;;;;;;13.72;74.25;96560.94;4835733;29;20189;-81
2022/10/01 09:49:33;;;;;;;0.77;0.40;;;;;;;13.83;73.78;96557.16;4851855;29;20196;-80
2022/10/01 09:52:19;;;;;;;0.50;0.50;;;;;;;13.75;74.24;96563.78;4852308;29;20229;-80
2022/10/01 09:54:46;;;;;;;0.60;0.55;;;;;;;13.82;73.86;96556.34;4852269;29;20239;-80
2022/10/01 09:57:22;;;;;;;0.57;0.40;;;;;;;13.65;74.21;96556.81;4837420;29;20338;-81
2022/10/01 10:00:12;;;;;;;0.35;0.35;;;;;;;13.81;74.13;96562.66;4836626;29;20224;-80
2022/10/01 10:02:41;;;;;;;0.68;0.47;;;;;;;13.86;73.64;96554.75;4837941;29;20631;-80
2022/10/01 10:05:09;;;;;;;0.30;0.30;;;;;;;13.91;73.40;96553.13;4837485;29;20185;-81
2022/10/01 10:07:37;;;;;;;0.38;0.25;;;;;;;13.90;74.00;96562.81;4837086;29;20232;-80
2022/10/01 10:10:34;;;;;;;0.50;0.47;;;;;;;13.88;73.51;96553.69;4838034;29;20272;-80
2022/10/01 10:13:23;;;;;;;0.70;0.50;;;;;;;14.05;73.31;96565.25;4853380;29;20299;-80
2022/10/01 10:15:56;;;;;;;0.50;0.47;;;;;;;13.98;73.46;96569.25;4824581;29;20803;-81
2022/10/01 10:18:34;;;;;;;0.40;0.35;;;;;;;13.89;73.84;96574.34;4837246;29;20178;-80
2022/10/01 10:21:03;;;;;;;0.50;0.40;;;;;;;13.96;73.90;96566.16;4864574;29;20317;-80
2022/10/01 10:23:28;;;;;;;0.55;0.40;;;;;;;14.09;73.94;96575.16;4836856;29;20239;-81
2022/10/01 10:26:04;;;;;;;0.57;0.30;;;;;;;14.02;73.77;96575.50;4821956;29;20207;-81
2022/10/01 10:28:40;;;;;;;1.77;0.30;;;;;;;13.98;74.04;96575.28;4838411;29;20216;-80
2022/10/01 10:31:13;;;;;;;0.80;0.20;;;;;;;13.98;74.57;96580.53;4837351;29;20679;-80
2022/10/01 10:33:45;;;;;;;1.15;0.28;;;;;;;13.93;74.18;96572.75;4853170;29;20185;-81
2022/10/01 10:36:14;;;;;;;0.98;0.30;;;;;;;14.15;73.81;96574.03;4837084;29;20645;-81
2022/10/01 10:38:44;;;;;;;1.00;0.28;;;;;;;14.06;74.26;96576.50;4852090;29;20259;-83
2022/10/01 10:41:16;;;;;;;0.63;0.30;;;;;;;14.06;73.96;96586.97;4838146;29;20781;-80
2022/10/01 10:43:43;;;;;;;0.70;0.40;;;;;;;14.30;73.70;96576.44;4846337;29;20169;-81
2022/10/01 10:46:08;;;;;;;0.50;0.30;;;;;;;14.30;73.64;96584.31;4838599;29;20240;-81
2022/10/01 10:48:42;;;;;;;0.50;0.40;;;;;;;14.19;74.10;96588.13;4847673;29;20263;-81
2022/10/01 10:51:09;;;;;;;1.20;0.30;;;;;;;14.42;73.49;96589.88;4837797;29;20196;-82
2022/10/01 10:53:43;;;;;;;0.47;0.40;;;;;;;14.40;72.93;96589.41;4837851;29;20189;-80
2022/10/01 10:56:21;;;;;;;0.45;0.40;;;;;;;14.45;72.97;96593.81;4837897;29;20220;-80
2022/10/01 10:58:47;;;;;;;0.80;0.50;;;;;;;14.58;72.59;96592.28;4852676;29;20221;-80
2022/10/01 11:01:33;;;;;;;0.70;0.50;;;;;;;14.32;73.59;96603.13;4836844;29;20267;-81
2022/10/01 11:04:00;;;;;;;0.68;0.60;;;;;;;14.36;73.63;96612.00;4849859;29;20674;-81
2022/10/01 11:06:26;;;;;;;0.80;0.47;;;;;;;14.65;72.63;96610.31;4865567;29;20282;-82
2022/10/01 11:09:00;;;;;;;0.82;0.77;;;;;;;14.39;73.21;96605.41;4846839;29;20200;-81
2022/10/01 11:11:33;;;;;;;2.10;0.88;;;;;;;14.53;73.03;96626.41;4836755;29;20213;-81
2022/10/01 11:14:08;;;;;;;2.08;1.13;;;;;;;14.37;73.50;96623.25;4849056;29;20217;-81
2022/10/01 11:16:52;;;;;;;0.88;0.88;;;;;;;14.56;73.26;96618.78;4853207;29;20291;-82
2022/10/01 11:19:42;;;;;;;2.58;1.13;;;;;;;14.71;72.68;96623.06;4853563;29;20787;-82
2022/10/01 11:22:16;;;;;;;1.30;1.20;;;;;;;14.59;73.26;96627.94;4855296;29;20220;-81
2022/10/01 11:24:51;;;;;;;1.00;0.90;;;;;;;14.59;73.00;96630.56;4836823;29;20262;-80
2022/10/01 11:27:26;;;;;;;1.88;1.15;;;;;;;14.58;73.35;96634.22;4849140;29;20205;-81
2022/10/01 11:30:53;;;;;;;1.55;1.42;;;;;;;14.50;74.46;96637.50;4853051;29;20195;-82
2022/10/01 11:33:51;;;;;;;1.98;1.67;;;;;;;14.43;74.34;96643.84;4753674;29;20342;-82
2022/10/01 11:36:40;;;;;;;3.38;1.70;;;;;;;14.46;74.48;96642.50;4778459;29;20190;-80
2022/10/01 11:39:10;;;;;;;3.53;1.45;;;;;;;14.88;73.27;96648.75;4763858;29;20209;-83
2022/10/01 11:41:49;;;;;;;1.95;1.70;;;;;;;14.92;72.82;96647.13;4780071;29;20228;-82
2022/10/01 11:44:27;;;;;;;2.80;1.50;;;;;;;14.66;74.10;96645.94;4774518;29;20308;-81
2022/10/01 11:47:06;;;;;;;1.73;1.63;;;;;;;14.78;73.42;96654.16;4778060;29;20216;-81
2022/10/01 11:49:41;;;;;;;2.03;1.85;;;;;;;14.81;73.75;96660.69;4774294;29;20255;-82
2022/10/01 11:52:22;;;;;;;2.22;1.90;;;;;;;15.03;72.97;96668.75;4774892;29;20223;-83
2022/10/01 11:58:49;;;;;;;2.20;1.80;;;;;;;15.19;72.40;96669.28;4775024;29;20306;-82
2022/10/01 12:00:30;;;;;;;4.15;1.98;;;;;;;14.88;74.02;96684.69;4778146;29;20435;-81